x

South Georgian Bay (45143) Wave Buoy

10:00pm - Sat 27th May 2017 All times are CDT. -5 hours from GMT.

  • Sig Wave height 0.3ft
  • Peak Period 12s
  • Wind
    4mph, 4mph gusts
  • Sea Temp 42°f
  • Air Temp 47°f
  • Sea Pressure 1013.2mb
  • South Georgian Bay
  • South Georgian Bay

More Historic Weather Station data

Upgrade to MSW Pro to gain access to the past 30 days of data for over 8000 Wavebouys and Weather Stations around the globe.

Join Pro

Comparision Forecast

View Surf forecast
   
Sat 05/27 10:00pm 0.3ft 12s 4 4 mph 1013.2mb 42f 47f
9:00pm 0.3ft 12s 4 7 mph 1012.7mb 41f 46f
8:00pm 0.3ft 14s 7 7 mph 1012.6mb 42f 47f
7:00pm 0.3ft 15s 4 4 mph 1013.1mb 45f 49f
6:00pm 0.3ft 15s 2 2 mph 1013.6mb 45f 50f
5:00pm 0.3ft 14s 2 4 mph 1013.3mb 45f 49f
4:00pm 0.3ft 12s 7 7 mph 1013.3mb 44f 49f
3:00pm 0.3ft 10s 2 2 mph 1012.9mb 44f 51f
2:00pm 0.3ft 8s 2 4 mph 1013.2mb 42f 52f
1:00pm 0.3ft 7s 2 2 mph 1013.5mb 42f 49f
12:00pm 0.3ft 8s 2 2 mph 1013.7mb 41f 47f
11:00am 0.3ft 2s 4 7 mph 1014mb 40f 45f
10:00am 0.3ft 6s 4 4 mph 1014.2mb 40f 45f
9:00am 0.3ft 7s 2 2 mph 1013.6mb 40f 45f
8:00am 0.3ft 7s 4 4 mph 1013.6mb 40f 44f
7:00am 0.3ft 2s 4 7 mph 1013.3mb 39f 43f
6:00am 0.3ft 2s 4 4 mph 1013.1mb 39f 43f
5:00am 0.3ft 2s 7 9 mph 1012.7mb 39f 44f
4:00am 0.3ft 2s 7 7 mph 1012.6mb 39f 43f
3:00am 0.3ft 2s 7 9 mph 1012.2mb 39f 45f
2:00am 0.3ft 2s 7 9 mph 1012.5mb 39f 44f
1:00am 0.3ft 3s 7 7 mph 1012.1mb 39f 43f
12:00am 0.3ft 2s 4 4 mph 1011.9mb 39f 43f
Fri 05/26 11:00pm 0.3ft 2s 4 4 mph 1011.9mb 39f 43f
10:00pm 0.3ft 2s 9 9 mph 1012.1mb 39f 45f
9:00pm 0.7ft 3s 7 9 mph 1011.8mb 39f 45f
8:00pm 0.7ft 2s 7 7 mph 1011.1mb 39f 44f
7:00pm 0.3ft 2s 9 9 mph 1010.8mb 39f 45f
6:00pm 0.7ft 2s 9 9 mph 1010.5mb 39f 44f
5:00pm 0.3ft 3s 7 9 mph 1010.2mb 39f 43f
4:00pm 0.3ft 2s 9 11 mph 1009.5mb 40f 44f
3:00pm 0.7ft 2s 9 9 mph 1009.1mb 40f 44f
2:00pm 0.7ft 2s 9 9 mph 1009.1mb 39f 44f
1:00pm 0.3ft 2s 9 11 mph 1008.7mb 39f 43f
12:00pm 0.3ft 2s 9 11 mph 1008.3mb 40f 42f
11:00am 0.3ft 2s 9 9 mph 1007.8mb 39f 43f
10:00am 0.3ft 2s 9 9 mph 1007.5mb 39f 43f
9:00am 0.3ft 3s 7 9 mph 1007.3mb 39f 43f
8:00am 0.3ft 3s 7 9 mph 1006.8mb 39f 43f
7:00am 0.3ft 3s 9 9 mph 1006.2mb 39f 42f
6:00am 0.7ft 3s 9 9 mph 1005.5mb 39f 43f
5:00am 0.7ft 3s 9 9 mph 1004.8mb 39f 44f
4:00am 0.7ft 3s 7 9 mph 1004.4mb 39f 43f
3:00am 0.7ft 3s 7 9 mph 1003.8mb 39f 44f
2:00am 0.7ft 3s 7 9 mph 1003.4mb 39f 44f
1:00am 0.7ft 2s 7 9 mph 1003.3mb 39f 43f
12:00am 0.7ft 3s 9 9 mph 1002.9mb 39f 44f
Thu 05/25 11:00pm 0.7ft 3s 9 9 mph 1003mb 39f 44f
10:00pm 0.7ft 3s 9 9 mph 1003mb 39f 45f
9:00pm 0.7ft 3s 9 11 mph 1002.7mb 39f 47f
8:00pm 0.7ft 3s 9 9 mph 1002.3mb 39f 44f
7:00pm 0.7ft 3s 9 11 mph 1001.7mb 39f 51f
6:00pm 0.7ft 3s 9 11 mph 1001.3mb 39f 47f
5:00pm 1ft 3s 9 9 mph 1001.1mb 39f 46f
4:00pm 1.3ft 3s 9 9 mph 1001.4mb 39f 45f
3:00pm 1.3ft 3s 9 11 mph 1001.6mb 39f 45f
2:00pm 1.6ft 3s 11 13 mph 1001.9mb 39f 45f
1:00pm 2ft 4s 16 18 mph 1002mb 39f 46f
12:00pm 1.6ft 3s 18 18 mph 1002mb 39f 46f
11:00am 1.3ft 3s 13 18 mph 1002.3mb 39f 45f
10:00am 1.6ft 3s 9 11 mph 1002.9mb 39f 46f
9:00am 2ft 3s 16 18 mph 1002.8mb 39f 47f
8:00am 1.3ft 3s 11 13 mph 1002.8mb 39f 45f
7:00am 1.3ft 3s 11 13 mph 1002.9mb 39f 46f
6:00am 1ft 2s 11 13 mph 1002.9mb 39f 45f
5:00am 1.3ft 3s 9 11 mph 1003.1mb 39f 45f
4:00am 1.3ft 3s 16 18 mph 1002.8mb 39f 46f
3:00am 1.3ft 2s 13 16 mph 1002.9mb 39f 46f
2:00am 1ft 2s 13 16 mph 1003mb 39f 47f
1:00am 0.7ft 2s 13 16 mph 1003.6mb 39f 47f
12:00am 0.7ft 2s 13 13 mph 1004.5mb 39f 47f
Wed 05/24 11:00pm 0.7ft 2s 9 9 mph 1004.6mb 39f 46f
10:00pm 1ft 3s 9 13 mph 1004.7mb 39f 46f
9:00pm 1ft 3s 11 13 mph 1004.8mb 39f 48f
8:00pm 1ft 2s 11 13 mph 1004.6mb 39f 47f
7:00pm 0.7ft 2s 13 16 mph 1004.2mb 39f 49f
6:00pm 0.7ft 2s 9 9 mph 1004.7mb 39f 48f
5:00pm 0.7ft 2s 11 13 mph 1004.6mb 39f 47f
4:00pm 0.7ft 2s 11 13 mph 1004.4mb 39f 47f
3:00pm 0.7ft 2s 13 16 mph 1004.4mb 39f 48f
2:00pm 0.3ft 2s 13 13 mph 1005mb 39f 47f
1:00pm 0.3ft 2s 11 13 mph 1005.1mb 39f 46f
12:00pm 0.3ft 7s 7 9 mph 1005.9mb 39f 45f
11:00am 0.3ft 7s 11 13 mph 1006.3mb 39f 45f
10:00am 0.3ft 7s 9 9 mph 1006.8mb 39f 44f
9:00am 0.3ft 7s 9 9 mph 1006.7mb 39f 43f
8:00am 0.3ft 6s 7 7 mph 1007.1mb 39f 44f
7:00am 0.3ft 7s 7 7 mph 1006.9mb 39f 44f
6:00am 0.3ft 6s 7 7 mph 1006.9mb 39f 42f
5:00am 0.3ft 6s 4 4 mph 1006.9mb 39f 44f